sensor_id;sensor_type;location;lat;lon;timestamp;pressure;altitude;pressure_sealevel;temperature;humidity
16481;BME280;44634;54.110;12.138;2023-06-22T00:00:27;101296.47;;;21.25;100.00
16481;BME280;44634;54.110;12.138;2023-06-22T00:02:55;101277.72;;;21.59;100.00
16481;BME280;44634;54.110;12.138;2023-06-22T00:05:23;101277.44;;;21.82;100.00
16481;BME280;44634;54.110;12.138;2023-06-22T00:07:51;101291.25;;;21.73;100.00
16481;BME280;44634;54.110;12.138;2023-06-22T00:10:18;101304.34;;;21.82;100.00
16481;BME280;44634;54.110;12.138;2023-06-22T00:12:46;101316.56;;;21.50;100.00
16481;BME280;44634;54.110;12.138;2023-06-22T00:15:14;101324.00;;;21.48;100.00
16481;BME280;44634;54.110;12.138;2023-06-22T00:17:43;101313.66;;;21.52;100.00
16481;BME280;44634;54.110;12.138;2023-06-22T00:20:11;101308.72;;;21.55;100.00
16481;BME280;44634;54.110;12.138;2023-06-22T00:22:41;101309.41;;;21.15;100.00
16481;BME280;44634;54.110;12.138;2023-06-22T00:25:09;101296.19;;;21.20;100.00
16481;BME280;44634;54.110;12.138;2023-06-22T00:27:37;101303.94;;;21.08;100.00
16481;BME280;44634;54.110;12.138;2023-06-22T00:30:06;101296.69;;;21.51;100.00
16481;BME280;44634;54.110;12.138;2023-06-22T00:32:34;101297.38;;;21.60;100.00
16481;BME280;44634;54.110;12.138;2023-06-22T00:35:04;101323.28;;;21.61;100.00
16481;BME280;44634;54.110;12.138;2023-06-22T00:37:32;101345.34;;;21.78;100.00
16481;BME280;44634;54.110;12.138;2023-06-22T00:39:59;101352.59;;;21.28;100.00
16481;BME280;44634;54.110;12.138;2023-06-22T00:42:27;101335.13;;;21.02;100.00
16481;BME280;44634;54.110;12.138;2023-06-22T00:44:55;101327.91;;;20.67;100.00
16481;BME280;44634;54.110;12.138;2023-06-22T00:47:23;101315.88;;;20.63;100.00
16481;BME280;44634;54.110;12.138;2023-06-22T00:49:51;101312.28;;;20.56;100.00
16481;BME280;44634;54.110;12.138;2023-06-22T00:52:22;101304.69;;;20.59;100.00
16481;BME280;44634;54.110;12.138;2023-06-22T00:54:55;101304.53;;;20.67;100.00
16481;BME280;44634;54.110;12.138;2023-06-22T00:57:24;101306.19;;;20.83;100.00
16481;BME280;44634;54.110;12.138;2023-06-22T00:59:54;101312.09;;;20.57;100.00
16481;BME280;44634;54.110;12.138;2023-06-22T01:02:22;101306.91;;;20.56;100.00
16481;BME280;44634;54.110;12.138;2023-06-22T01:04:50;101306.00;;;20.48;100.00
16481;BME280;44634;54.110;12.138;2023-06-22T01:07:24;101299.66;;;20.71;100.00
16481;BME280;44634;54.110;12.138;2023-06-22T01:10:00;101297.59;;;20.73;100.00
16481;BME280;44634;54.110;12.138;2023-06-22T01:12:32;101308.88;;;20.83;100.00
16481;BME280;44634;54.110;12.138;2023-06-22T01:15:07;101314.13;;;20.70;100.00
16481;BME280;44634;54.110;12.138;2023-06-22T01:17:36;101313.16;;;20.77;100.00
16481;BME280;44634;54.110;12.138;2023-06-22T01:20:08;101327.84;;;20.82;100.00
16481;BME280;44634;54.110;12.138;2023-06-22T01:22:48;101334.91;;;20.83;100.00
16481;BME280;44634;54.110;12.138;2023-06-22T01:25:28;101334.16;;;20.89;100.00
16481;BME280;44634;54.110;12.138;2023-06-22T01:28:04;101342.59;;;20.86;100.00
16481;BME280;44634;54.110;12.138;2023-06-22T01:30:34;101334.44;;;20.43;100.00
16481;BME280;44634;54.110;12.138;2023-06-22T01:33:05;101317.81;;;20.39;100.00
16481;BME280;44634;54.110;12.138;2023-06-22T01:35:33;101310.53;;;20.18;100.00
16481;BME280;44634;54.110;12.138;2023-06-22T01:38:01;101314.31;;;20.24;100.00
16481;BME280;44634;54.110;12.138;2023-06-22T01:40:29;101321.16;;;20.71;100.00
16481;BME280;44634;54.110;12.138;2023-06-22T01:43:00;101322.03;;;20.42;100.00
16481;BME280;44634;54.110;12.138;2023-06-22T01:45:28;101320.41;;;20.62;100.00
16481;BME280;44634;54.110;12.138;2023-06-22T01:47:58;101336.16;;;20.65;100.00
16481;BME280;44634;54.110;12.138;2023-06-22T01:50:26;101353.75;;;20.68;100.00
16481;BME280;44634;54.110;12.138;2023-06-22T01:52:55;101350.25;;;20.53;100.00
16481;BME280;44634;54.110;12.138;2023-06-22T01:55:22;101348.97;;;20.34;100.00
16481;BME280;44634;54.110;12.138;2023-06-22T01:57:50;101349.91;;;20.26;100.00
16481;BME280;44634;54.110;12.138;2023-06-22T02:00:20;101336.94;;;20.30;100.00
16481;BME280;44634;54.110;12.138;2023-06-22T02:02:54;101338.22;;;19.89;100.00
16481;BME280;44634;54.110;12.138;2023-06-22T02:05:27;101337.00;;;20.07;100.00
16481;BME280;44634;54.110;12.138;2023-06-22T02:08:00;101341.94;;;20.18;100.00
16481;BME280;44634;54.110;12.138;2023-06-22T02:10:31;101346.47;;;20.17;100.00
16481;BME280;44634;54.110;12.138;2023-06-22T02:13:01;101344.44;;;20.19;100.00
16481;BME280;44634;54.110;12.138;2023-06-22T02:15:30;101345.72;;;20.24;100.00
16481;BME280;44634;54.110;12.138;2023-06-22T02:17:59;101341.66;;;20.13;100.00
16481;BME280;44634;54.110;12.138;2023-06-22T02:20:28;101340.91;;;20.34;100.00
16481;BME280;44634;54.110;12.138;2023-06-22T02:22:56;101364.44;;;20.61;100.00
16481;BME280;44634;54.110;12.138;2023-06-22T02:25:24;101363.41;;;20.33;100.00
16481;BME280;44634;54.110;12.138;2023-06-22T02:27:52;101354.16;;;20.20;100.00
16481;BME280;44634;54.110;12.138;2023-06-22T02:30:20;101348.16;;;20.48;100.00
16481;BME280;44634;54.110;12.138;2023-06-22T02:32:47;101356.13;;;20.41;100.00
16481;BME280;44634;54.110;12.138;2023-06-22T02:35:15;101362.84;;;20.37;100.00
16481;BME280;44634;54.110;12.138;2023-06-22T02:37:44;101364.84;;;20.43;100.00
16481;BME280;44634;54.110;12.138;2023-06-22T02:40:13;101383.69;;;20.35;100.00
16481;BME280;44634;54.110;12.138;2023-06-22T02:42:41;101385.91;;;20.32;100.00
16481;BME280;44634;54.110;12.138;2023-06-22T02:45:09;101385.69;;;20.41;100.00
16481;BME280;44634;54.110;12.138;2023-06-22T02:47:37;101381.00;;;20.06;100.00
16481;BME280;44634;54.110;12.138;2023-06-22T02:50:05;101378.75;;;19.95;100.00
16481;BME280;44634;54.110;12.138;2023-06-22T02:52:33;101382.78;;;20.13;100.00
16481;BME280;44634;54.110;12.138;2023-06-22T02:55:03;101382.97;;;20.56;100.00
16481;BME280;44634;54.110;12.138;2023-06-22T02:57:31;101387.75;;;20.16;100.00
16481;BME280;44634;54.110;12.138;2023-06-22T02:59:58;101384.81;;;20.26;100.00
16481;BME280;44634;54.110;12.138;2023-06-22T03:02:26;101380.91;;;19.99;100.00
16481;BME280;44634;54.110;12.138;2023-06-22T03:04:54;101367.94;;;20.17;100.00
16481;BME280;44634;54.110;12.138;2023-06-22T03:07:22;101368.72;;;19.74;100.00
16481;BME280;44634;54.110;12.138;2023-06-22T03:09:50;101360.06;;;19.86;100.00
16481;BME280;44634;54.110;12.138;2023-06-22T03:12:19;101359.44;;;19.99;100.00
16481;BME280;44634;54.110;12.138;2023-06-22T03:14:47;101368.50;;;19.98;100.00
16481;BME280;44634;54.110;12.138;2023-06-22T03:17:14;101367.66;;;19.98;100.00
16481;BME280;44634;54.110;12.138;2023-06-22T03:19:42;101367.75;;;19.89;100.00
16481;BME280;44634;54.110;12.138;2023-06-22T03:22:10;101361.63;;;20.25;100.00
16481;BME280;44634;54.110;12.138;2023-06-22T03:24:40;101387.03;;;20.52;100.00
16481;BME280;44634;54.110;12.138;2023-06-22T03:27:07;101389.47;;;20.47;100.00
16481;BME280;44634;54.110;12.138;2023-06-22T03:29:37;101399.19;;;20.63;100.00
16481;BME280;44634;54.110;12.138;2023-06-22T03:32:05;101408.97;;;21.21;100.00
16481;BME280;44634;54.110;12.138;2023-06-22T03:34:33;101437.72;;;20.85;100.00
16481;BME280;44634;54.110;12.138;2023-06-22T03:37:01;101422.59;;;20.84;100.00
16481;BME280;44634;54.110;12.138;2023-06-22T03:39:29;101425.28;;;20.84;100.00
16481;BME280;44634;54.110;12.138;2023-06-22T03:41:57;101419.91;;;20.54;100.00
16481;BME280;44634;54.110;12.138;2023-06-22T03:44:25;101420.50;;;20.49;100.00
16481;BME280;44634;54.110;12.138;2023-06-22T03:46:54;101421.50;;;20.48;100.00
16481;BME280;44634;54.110;12.138;2023-06-22T03:49:22;101418.16;;;20.76;100.00
16481;BME280;44634;54.110;12.138;2023-06-22T03:51:50;101460.75;;;20.94;100.00
16481;BME280;44634;54.110;12.138;2023-06-22T03:54:18;101454.94;;;20.75;100.00
16481;BME280;44634;54.110;12.138;2023-06-22T03:56:45;101458.72;;;20.96;100.00
16481;BME280;44634;54.110;12.138;2023-06-22T03:59:13;101455.69;;;20.84;100.00
16481;BME280;44634;54.110;12.138;2023-06-22T04:01:41;101459.94;;;20.78;100.00
16481;BME280;44634;54.110;12.138;2023-06-22T04:04:10;101459.56;;;20.52;100.00
16481;BME280;44634;54.110;12.138;2023-06-22T04:06:39;101440.25;;;20.19;100.00
16481;BME280;44634;54.110;12.138;2023-06-22T04:09:07;101438.66;;;20.47;100.00
16481;BME280;44634;54.110;12.138;2023-06-22T04:11:35;101435.88;;;20.56;100.00
16481;BME280;44634;54.110;12.138;2023-06-22T04:14:02;101438.09;;;20.52;100.00
16481;BME280;44634;54.110;12.138;2023-06-22T04:16:31;101432.00;;;20.43;100.00
16481;BME280;44634;54.110;12.138;2023-06-22T04:18:59;101429.47;;;20.71;100.00
16481;BME280;44634;54.110;12.138;2023-06-22T04:21:29;101431.31;;;20.27;100.00
16481;BME280;44634;54.110;12.138;2023-06-22T04:23:56;101411.09;;;20.16;100.00
16481;BME280;44634;54.110;12.138;2023-06-22T04:26:24;101407.13;;;20.27;100.00
16481;BME280;44634;54.110;12.138;2023-06-22T04:28:52;101407.66;;;20.37;100.00
16481;BME280;44634;54.110;12.138;2023-06-22T04:31:22;101412.50;;;20.12;100.00
16481;BME280;44634;54.110;12.138;2023-06-22T04:34:00;101399.94;;;20.42;100.00
16481;BME280;44634;54.110;12.138;2023-06-22T04:36:35;101411.63;;;21.00;100.00
16481;BME280;44634;54.110;12.138;2023-06-22T04:39:07;101430.75;;;21.26;100.00
16481;BME280;44634;54.110;12.138;2023-06-22T04:41:36;101445.09;;;20.97;100.00
16481;BME280;44634;54.110;12.138;2023-06-22T04:44:09;101431.13;;;20.87;100.00
16481;BME280;44634;54.110;12.138;2023-06-22T04:46:40;101416.75;;;20.36;100.00
16481;BME280;44634;54.110;12.138;2023-06-22T04:49:08;101408.53;;;20.67;100.00
16481;BME280;44634;54.110;12.138;2023-06-22T04:51:39;101401.38;;;20.74;100.00
16481;BME280;44634;54.110;12.138;2023-06-22T04:54:08;101409.59;;;21.02;100.00
16481;BME280;44634;54.110;12.138;2023-06-22T04:56:36;101413.16;;;21.66;100.00
16481;BME280;44634;54.110;12.138;2023-06-22T04:59:07;101445.75;;;22.00;100.00
16481;BME280;44634;54.110;12.138;2023-06-22T05:04:07;101460.22;;;21.98;100.00
16481;BME280;44634;54.110;12.138;2023-06-22T05:06:35;101463.97;;;22.25;100.00
16481;BME280;44634;54.110;12.138;2023-06-22T05:09:07;101485.69;;;22.17;100.00
16481;BME280;44634;54.110;12.138;2023-06-22T05:11:35;101486.13;;;22.21;100.00
16481;BME280;44634;54.110;12.138;2023-06-22T05:14:03;101467.94;;;22.02;100.00
16481;BME280;44634;54.110;12.138;2023-06-22T05:16:31;101467.13;;;22.29;100.00
16481;BME280;44634;54.110;12.138;2023-06-22T05:18:59;101498.06;;;22.68;100.00
16481;BME280;44634;54.110;12.138;2023-06-22T05:21:30;101493.47;;;22.62;100.00
16481;BME280;44634;54.110;12.138;2023-06-22T05:23:58;101500.22;;;22.51;100.00
16481;BME280;44634;54.110;12.138;2023-06-22T05:26:31;101501.78;;;22.67;100.00
16481;BME280;44634;54.110;12.138;2023-06-22T05:28:59;101519.44;;;23.04;100.00
16481;BME280;44634;54.110;12.138;2023-06-22T05:31:29;101526.66;;;22.97;100.00
16481;BME280;44634;54.110;12.138;2023-06-22T05:33:57;101527.91;;;22.94;100.00
16481;BME280;44634;54.110;12.138;2023-06-22T05:36:26;101536.25;;;23.06;100.00
16481;BME280;44634;54.110;12.138;2023-06-22T05:38:56;101538.53;;;23.02;100.00
16481;BME280;44634;54.110;12.138;2023-06-22T05:41:24;101553.47;;;23.53;100.00
16481;BME280;44634;54.110;12.138;2023-06-22T05:43:53;101534.31;;;22.87;100.00
16481;BME280;44634;54.110;12.138;2023-06-22T05:46:21;101515.91;;;23.03;100.00
16481;BME280;44634;54.110;12.138;2023-06-22T05:48:49;101546.31;;;23.73;100.00
16481;BME280;44634;54.110;12.138;2023-06-22T05:51:16;101596.34;;;23.69;100.00
16481;BME280;44634;54.110;12.138;2023-06-22T05:53:44;101583.03;;;23.61;100.00
16481;BME280;44634;54.110;12.138;2023-06-22T05:56:16;101576.47;;;24.10;100.00
16481;BME280;44634;54.110;12.138;2023-06-22T05:58:45;101582.03;;;23.75;100.00
16481;BME280;44634;54.110;12.138;2023-06-22T06:01:14;101625.16;;;24.23;100.00
16481;BME280;44634;54.110;12.138;2023-06-22T06:03:43;101570.19;;;23.28;100.00
16481;BME280;44634;54.110;12.138;2023-06-22T06:06:11;101591.44;;;23.92;100.00
16481;BME280;44634;54.110;12.138;2023-06-22T06:08:39;101572.34;;;23.46;100.00
16481;BME280;44634;54.110;12.138;2023-06-22T06:11:06;101545.09;;;24.22;100.00
16481;BME280;44634;54.110;12.138;2023-06-22T06:13:34;101610.00;;;24.55;100.00
16481;BME280;44634;54.110;12.138;2023-06-22T06:16:02;101604.78;;;24.27;100.00
16481;BME280;44634;54.110;12.138;2023-06-22T06:18:31;101618.50;;;24.25;100.00
16481;BME280;44634;54.110;12.138;2023-06-22T06:21:00;101618.75;;;24.50;100.00
16481;BME280;44634;54.110;12.138;2023-06-22T06:23:28;101643.69;;;24.72;100.00
16481;BME280;44634;54.110;12.138;2023-06-22T06:25:55;101662.22;;;24.82;100.00
16481;BME280;44634;54.110;12.138;2023-06-22T06:28:24;101658.50;;;24.63;100.00
16481;BME280;44634;54.110;12.138;2023-06-22T06:30:52;101668.56;;;24.15;100.00
16481;BME280;44634;54.110;12.138;2023-06-22T06:33:20;101673.06;;;24.62;100.00
16481;BME280;44634;54.110;12.138;2023-06-22T06:35:52;101709.22;;;24.54;100.00
16481;BME280;44634;54.110;12.138;2023-06-22T06:38:22;101723.81;;;24.73;100.00
16481;BME280;44634;54.110;12.138;2023-06-22T06:40:50;101720.50;;;24.91;100.00
16481;BME280;44634;54.110;12.138;2023-06-22T06:43:18;101746.09;;;25.28;100.00
16481;BME280;44634;54.110;12.138;2023-06-22T06:45:46;101746.28;;;24.60;100.00
16481;BME280;44634;54.110;12.138;2023-06-22T06:48:17;101747.59;;;24.17;100.00
16481;BME280;44634;54.110;12.138;2023-06-22T06:50:45;101675.16;;;23.92;100.00
16481;BME280;44634;54.110;12.138;2023-06-22T06:53:15;101742.06;;;24.31;100.00
16481;BME280;44634;54.110;12.138;2023-06-22T06:55:43;101753.31;;;24.48;100.00
16481;BME280;44634;54.110;12.138;2023-06-22T06:58:12;101763.16;;;24.89;100.00
16481;BME280;44634;54.110;12.138;2023-06-22T07:00:40;101789.44;;;25.35;100.00
16481;BME280;44634;54.110;12.138;2023-06-22T07:03:08;101800.03;;;25.10;100.00
16481;BME280;44634;54.110;12.138;2023-06-22T07:05:36;101790.59;;;24.66;100.00
16481;BME280;44634;54.110;12.138;2023-06-22T07:08:04;101791.50;;;25.13;100.00
16481;BME280;44634;54.110;12.138;2023-06-22T07:10:33;101835.44;;;25.21;100.00
16481;BME280;44634;54.110;12.138;2023-06-22T07:13:01;101854.41;;;25.81;100.00
16481;BME280;44634;54.110;12.138;2023-06-22T07:15:29;101878.44;;;24.77;100.00
16481;BME280;44634;54.110;12.138;2023-06-22T07:17:56;101860.66;;;25.42;100.00
16481;BME280;44634;54.110;12.138;2023-06-22T07:20:24;101879.38;;;25.30;100.00
16481;BME280;44634;54.110;12.138;2023-06-22T07:22:53;101875.53;;;24.85;100.00
16481;BME280;44634;54.110;12.138;2023-06-22T07:25:21;101912.69;;;25.04;100.00
16481;BME280;44634;54.110;12.138;2023-06-22T07:27:59;101869.53;;;24.89;100.00
16481;BME280;44634;54.110;12.138;2023-06-22T07:30:27;101889.75;;;26.26;100.00
16481;BME280;44634;54.110;12.138;2023-06-22T07:32:56;101897.94;;;26.06;100.00
16481;BME280;44634;54.110;12.138;2023-06-22T07:35:25;101909.53;;;26.46;100.00
16481;BME280;44634;54.110;12.138;2023-06-22T07:37:53;101895.44;;;26.04;100.00
16481;BME280;44634;54.110;12.138;2023-06-22T07:40:21;101887.84;;;26.39;100.00
16481;BME280;44634;54.110;12.138;2023-06-22T07:42:49;101896.00;;;26.26;100.00
16481;BME280;44634;54.110;12.138;2023-06-22T07:45:19;101894.78;;;26.80;100.00
16481;BME280;44634;54.110;12.138;2023-06-22T07:47:47;101891.88;;;25.58;100.00
16481;BME280;44634;54.110;12.138;2023-06-22T07:50:15;101900.44;;;25.88;100.00
16481;BME280;44634;54.110;12.138;2023-06-22T07:52:43;101892.56;;;25.79;100.00
16481;BME280;44634;54.110;12.138;2023-06-22T07:55:11;101907.91;;;26.38;100.00
16481;BME280;44634;54.110;12.138;2023-06-22T07:57:38;101924.78;;;26.41;100.00
16481;BME280;44634;54.110;12.138;2023-06-22T08:00:09;101934.00;;;26.00;100.00
16481;BME280;44634;54.110;12.138;2023-06-22T08:02:41;101936.88;;;26.38;100.00
16481;BME280;44634;54.110;12.138;2023-06-22T08:05:09;101921.91;;;25.89;100.00
16481;BME280;44634;54.110;12.138;2023-06-22T08:07:41;101948.13;;;27.06;100.00
16481;BME280;44634;54.110;12.138;2023-06-22T08:10:13;101958.31;;;27.49;100.00
16481;BME280;44634;54.110;12.138;2023-06-22T08:12:41;101969.66;;;27.39;100.00
16481;BME280;44634;54.110;12.138;2023-06-22T08:15:09;101955.09;;;26.76;100.00
16481;BME280;44634;54.110;12.138;2023-06-22T08:17:37;101963.09;;;27.47;100.00
16481;BME280;44634;54.110;12.138;2023-06-22T08:20:08;101952.31;;;26.44;100.00
16481;BME280;44634;54.110;12.138;2023-06-22T08:22:38;101947.81;;;26.76;100.00
16481;BME280;44634;54.110;12.138;2023-06-22T08:25:07;101951.25;;;27.10;100.00
16481;BME280;44634;54.110;12.138;2023-06-22T08:27:36;101962.47;;;27.20;100.00
16481;BME280;44634;54.110;12.138;2023-06-22T08:30:05;101955.94;;;26.76;100.00
16481;BME280;44634;54.110;12.138;2023-06-22T08:32:34;101960.66;;;27.01;100.00
16481;BME280;44634;54.110;12.138;2023-06-22T08:35:02;101969.63;;;26.50;100.00
16481;BME280;44634;54.110;12.138;2023-06-22T08:37:31;101953.31;;;26.56;100.00
16481;BME280;44634;54.110;12.138;2023-06-22T08:40:03;101956.81;;;27.21;100.00
16481;BME280;44634;54.110;12.138;2023-06-22T08:42:32;101969.06;;;27.31;100.00
16481;BME280;44634;54.110;12.138;2023-06-22T08:45:00;101963.06;;;27.53;100.00
16481;BME280;44634;54.110;12.138;2023-06-22T08:47:28;101965.31;;;27.88;100.00
16481;BME280;44634;54.110;12.138;2023-06-22T08:49:56;101965.44;;;27.43;100.00
16481;BME280;44634;54.110;12.138;2023-06-22T08:52:24;101966.94;;;26.94;100.00
16481;BME280;44634;54.110;12.138;2023-06-22T08:54:53;101970.16;;;28.11;100.00
16481;BME280;44634;54.110;12.138;2023-06-22T08:57:21;101976.97;;;27.39;100.00
16481;BME280;44634;54.110;12.138;2023-06-22T08:59:49;101991.63;;;27.31;100.00
16481;BME280;44634;54.110;12.138;2023-06-22T09:02:19;101993.66;;;27.42;100.00
16481;BME280;44634;54.110;12.138;2023-06-22T09:04:47;101985.88;;;27.14;100.00
16481;BME280;44634;54.110;12.138;2023-06-22T09:07:15;101972.88;;;28.11;100.00
16481;BME280;44634;54.110;12.138;2023-06-22T09:09:48;101976.09;;;28.44;100.00
16481;BME280;44634;54.110;12.138;2023-06-22T09:12:18;101978.75;;;28.08;99.95
16481;BME280;44634;54.110;12.138;2023-06-22T09:14:47;101978.88;;;27.95;99.42
16481;BME280;44634;54.110;12.138;2023-06-22T09:17:15;101977.59;;;27.97;98.23
16481;BME280;44634;54.110;12.138;2023-06-22T09:19:49;101971.59;;;28.13;93.36
16481;BME280;44634;54.110;12.138;2023-06-22T09:22:17;101969.31;;;28.10;96.65
16481;BME280;44634;54.110;12.138;2023-06-22T09:24:45;101966.25;;;28.25;91.96
16481;BME280;44634;54.110;12.138;2023-06-22T09:27:13;101975.41;;;28.49;87.84
16481;BME280;44634;54.110;12.138;2023-06-22T09:29:42;101981.03;;;28.72;78.51
16481;BME280;44634;54.110;12.138;2023-06-22T09:32:10;101965.75;;;28.90;80.56
16481;BME280;44634;54.110;12.138;2023-06-22T09:34:37;101966.28;;;28.62;85.49
16481;BME280;44634;54.110;12.138;2023-06-22T09:37:05;101966.69;;;28.22;88.54
16481;BME280;44634;54.110;12.138;2023-06-22T09:39:33;101958.81;;;28.14;95.07
16481;BME280;44634;54.110;12.138;2023-06-22T09:42:01;101960.59;;;27.77;94.87
16481;BME280;44634;54.110;12.138;2023-06-22T09:44:29;101952.44;;;28.02;95.58
16481;BME280;44634;54.110;12.138;2023-06-22T09:46:58;101945.69;;;28.11;90.89
16481;BME280;44634;54.110;12.138;2023-06-22T09:49:25;101952.69;;;28.43;86.30
16481;BME280;44634;54.110;12.138;2023-06-22T09:52:12;101957.06;;;28.99;84.29
16481;BME280;44634;54.110;12.138;2023-06-22T09:54:40;101955.59;;;29.57;78.52
16481;BME280;44634;54.110;12.138;2023-06-22T09:57:08;101960.47;;;29.25;74.14
16481;BME280;44634;54.110;12.138;2023-06-22T09:59:35;101956.84;;;28.46;81.23
16481;BME280;44634;54.110;12.138;2023-06-22T10:02:05;101964.16;;;28.64;80.78
16481;BME280;44634;54.110;12.138;2023-06-22T10:04:33;101957.75;;;28.95;77.63
16481;BME280;44634;54.110;12.138;2023-06-22T10:07:02;101959.81;;;29.41;73.35
16481;BME280;44634;54.110;12.138;2023-06-22T10:09:30;101952.69;;;29.82;65.50
16481;BME280;44634;54.110;12.138;2023-06-22T10:11:57;101946.47;;;29.21;80.39
16481;BME280;44634;54.110;12.138;2023-06-22T10:14:25;101953.25;;;29.30;69.87
16481;BME280;44634;54.110;12.138;2023-06-22T10:16:56;101954.19;;;29.36;69.80
16481;BME280;44634;54.110;12.138;2023-06-22T10:19:27;101939.72;;;29.66;67.71
16481;BME280;44634;54.110;12.138;2023-06-22T10:21:54;101948.69;;;28.03;76.03
16481;BME280;44634;54.110;12.138;2023-06-22T10:24:22;101939.19;;;28.85;77.02
16481;BME280;44634;54.110;12.138;2023-06-22T10:26:50;101941.75;;;28.07;76.19
16481;BME280;44634;54.110;12.138;2023-06-22T10:29:18;101943.53;;;29.23;69.38
16481;BME280;44634;54.110;12.138;2023-06-22T10:31:46;101936.78;;;29.25;67.93
16481;BME280;44634;54.110;12.138;2023-06-22T10:34:13;101944.13;;;29.78;65.55
16481;BME280;44634;54.110;12.138;2023-06-22T10:36:43;101935.16;;;30.13;61.70
16481;BME280;44634;54.110;12.138;2023-06-22T10:39:13;101928.97;;;29.71;65.33
16481;BME280;44634;54.110;12.138;2023-06-22T10:41:41;101935.13;;;29.66;65.50
16481;BME280;44634;54.110;12.138;2023-06-22T10:44:09;101932.56;;;29.41;70.02
16481;BME280;44634;54.110;12.138;2023-06-22T10:46:37;101922.94;;;30.27;63.14
16481;BME280;44634;54.110;12.138;2023-06-22T10:49:05;101919.13;;;30.05;63.93
16481;BME280;44634;54.110;12.138;2023-06-22T10:51:32;101919.44;;;30.43;64.12
16481;BME280;44634;54.110;12.138;2023-06-22T10:54:02;101921.88;;;30.05;59.10
16481;BME280;44634;54.110;12.138;2023-06-22T10:56:30;101920.53;;;30.42;56.48
16481;BME280;44634;54.110;12.138;2023-06-22T10:59:00;101917.50;;;30.96;55.41
16481;BME280;44634;54.110;12.138;2023-06-22T11:01:28;101922.03;;;30.50;54.85
16481;BME280;44634;54.110;12.138;2023-06-22T11:04:02;101914.72;;;29.57;58.91
16481;BME280;44634;54.110;12.138;2023-06-22T11:06:31;101904.06;;;29.90;60.33
16481;BME280;44634;54.110;12.138;2023-06-22T11:08:59;101903.72;;;29.99;61.26
16481;BME280;44634;54.110;12.138;2023-06-22T11:11:31;101901.16;;;30.56;57.12
16481;BME280;44634;54.110;12.138;2023-06-22T11:13:58;101896.19;;;30.81;57.27
16481;BME280;44634;54.110;12.138;2023-06-22T11:16:27;101906.44;;;30.74;56.07
16481;BME280;44634;54.110;12.138;2023-06-22T11:18:55;101905.94;;;31.05;52.97
16481;BME280;44634;54.110;12.138;2023-06-22T11:21:22;101900.22;;;31.52;51.88
16481;BME280;44634;54.110;12.138;2023-06-22T11:23:50;101904.28;;;30.76;57.29
16481;BME280;44634;54.110;12.138;2023-06-22T11:26:18;101894.50;;;31.54;51.79
16481;BME280;44634;54.110;12.138;2023-06-22T11:28:49;101894.91;;;31.46;50.38
16481;BME280;44634;54.110;12.138;2023-06-22T11:31:16;101903.31;;;31.11;50.44
16481;BME280;44634;54.110;12.138;2023-06-22T11:33:51;101899.00;;;31.15;52.92
16481;BME280;44634;54.110;12.138;2023-06-22T11:36:19;101897.22;;;30.11;58.45
16481;BME280;44634;54.110;12.138;2023-06-22T11:38:47;101886.22;;;30.46;58.87
16481;BME280;44634;54.110;12.138;2023-06-22T11:41:15;101881.66;;;30.52;59.79
16481;BME280;44634;54.110;12.138;2023-06-22T11:43:43;101878.78;;;31.44;52.08
16481;BME280;44634;54.110;12.138;2023-06-22T11:46:12;101876.63;;;31.01;54.35
16481;BME280;44634;54.110;12.138;2023-06-22T11:48:40;101878.00;;;31.49;57.93
16481;BME280;44634;54.110;12.138;2023-06-22T11:51:08;101881.22;;;31.12;57.21
16481;BME280;44634;54.110;12.138;2023-06-22T11:53:36;101882.13;;;32.02;52.27
16481;BME280;44634;54.110;12.138;2023-06-22T11:56:04;101878.81;;;31.16;58.12
16481;BME280;44634;54.110;12.138;2023-06-22T11:58:34;101883.56;;;31.87;53.18
16481;BME280;44634;54.110;12.138;2023-06-22T12:01:01;101880.25;;;31.52;55.08
16481;BME280;44634;54.110;12.138;2023-06-22T12:03:31;101877.63;;;32.12;49.89
16481;BME280;44634;54.110;12.138;2023-06-22T12:05:59;101873.13;;;31.34;54.16
16481;BME280;44634;54.110;12.138;2023-06-22T12:08:27;101875.38;;;31.54;50.63
16481;BME280;44634;54.110;12.138;2023-06-22T12:10:55;101873.31;;;31.27;55.40
16481;BME280;44634;54.110;12.138;2023-06-22T12:13:22;101883.00;;;31.68;53.90
16481;BME280;44634;54.110;12.138;2023-06-22T12:15:50;101874.44;;;31.82;50.80
16481;BME280;44634;54.110;12.138;2023-06-22T12:18:18;101870.03;;;31.81;50.90
16481;BME280;44634;54.110;12.138;2023-06-22T12:20:49;101865.09;;;31.78;49.42
16481;BME280;44634;54.110;12.138;2023-06-22T12:23:17;101857.94;;;32.15;51.80
16481;BME280;44634;54.110;12.138;2023-06-22T12:25:46;101864.81;;;31.62;52.98
16481;BME280;44634;54.110;12.138;2023-06-22T12:28:14;101857.81;;;32.27;48.24
16481;BME280;44634;54.110;12.138;2023-06-22T12:30:41;101868.09;;;30.40;55.38
16481;BME280;44634;54.110;12.138;2023-06-22T12:33:09;101868.59;;;30.02;57.65
16481;BME280;44634;54.110;12.138;2023-06-22T12:35:37;101870.38;;;30.72;56.22
16481;BME280;44634;54.110;12.138;2023-06-22T12:38:07;101860.34;;;30.77;57.14
16481;BME280;44634;54.110;12.138;2023-06-22T12:40:35;101855.84;;;30.83;54.55
16481;BME280;44634;54.110;12.138;2023-06-22T12:43:03;101859.44;;;30.72;53.90